createdAt,value
2022-12-08T00:00:22.612Z,5.03
2022-12-08T00:01:22.618Z,5.03
2022-12-08T00:02:22.800Z,5.04
2022-12-08T00:03:22.689Z,5.07
2022-12-08T00:04:22.592Z,5.25
2022-12-08T00:05:22.591Z,5.22
2022-12-08T00:06:22.582Z,5.17
2022-12-08T00:07:22.591Z,5.15
2022-12-08T00:08:22.626Z,5.21
2022-12-08T00:09:22.574Z,5.18
2022-12-08T00:10:47.682Z,5.25
2022-12-08T00:11:22.560Z,5.22
2022-12-08T00:12:22.551Z,5.31
2022-12-08T00:13:22.550Z,5.28
2022-12-08T00:14:22.547Z,5.30
2022-12-08T00:15:22.543Z,5.28
2022-12-08T00:16:22.580Z,5.31
2022-12-08T00:17:22.527Z,5.25
2022-12-08T00:18:22.548Z,5.27
2022-12-08T00:19:22.518Z,5.24
2022-12-08T00:20:22.513Z,5.36
2022-12-08T00:21:22.508Z,5.38
2022-12-08T00:22:22.500Z,5.39
2022-12-08T00:23:22.503Z,5.42
2022-12-08T00:24:22.488Z,5.27
2022-12-08T00:25:22.491Z,5.40
2022-12-08T00:26:22.478Z,5.38
2022-12-08T00:27:22.474Z,5.36
2022-12-08T00:28:22.467Z,5.43
2022-12-08T00:29:22.476Z,5.42
2022-12-08T00:30:22.461Z,5.42
2022-12-08T00:31:22.518Z,5.40
2022-12-08T00:32:22.604Z,5.42
2022-12-08T00:33:22.446Z,5.43
2022-12-08T00:34:22.460Z,5.27
2022-12-08T00:35:22.436Z,5.36
2022-12-08T00:36:22.433Z,5.33
2022-12-08T00:37:22.427Z,5.35
2022-12-08T00:38:22.416Z,5.31
2022-12-08T00:39:22.417Z,5.31
2022-12-08T00:40:22.405Z,5.30
2022-12-08T00:41:22.399Z,5.27
2022-12-08T00:42:22.399Z,5.30
2022-12-08T00:43:22.395Z,5.27
2022-12-08T00:44:22.419Z,5.12
2022-12-08T00:45:22.382Z,5.03
2022-12-08T00:46:22.462Z,5.04
2022-12-08T00:47:25.007Z,5.09
2022-12-08T00:48:22.362Z,5.03
2022-12-08T00:49:22.365Z,5.00
2022-12-08T00:50:22.383Z,5.03
2022-12-08T00:51:22.360Z,5.15
2022-12-08T00:52:22.367Z,5.25
2022-12-08T00:53:22.348Z,5.27
2022-12-08T00:54:22.338Z,5.33
2022-12-08T00:55:22.332Z,5.39
2022-12-08T00:56:22.331Z,5.38
2022-12-08T00:57:22.326Z,5.40
2022-12-08T00:58:22.310Z,5.45
2022-12-08T00:59:22.315Z,5.51
2022-12-08T01:00:22.333Z,5.45
2022-12-08T01:01:22.448Z,5.36
2022-12-08T01:02:22.291Z,5.36
2022-12-08T01:03:22.442Z,5.40
2022-12-08T01:04:22.283Z,5.31
2022-12-08T01:05:22.277Z,5.38
2022-12-08T01:06:22.307Z,5.61
2022-12-08T01:07:22.282Z,5.58
2022-12-08T01:08:22.399Z,5.67
2022-12-08T01:09:22.263Z,5.76
2022-12-08T01:10:22.249Z,5.78
2022-12-08T01:11:22.249Z,5.81
2022-12-08T01:12:22.245Z,5.83
2022-12-08T01:13:22.237Z,5.78
2022-12-08T01:14:22.232Z,5.79
2022-12-08T01:15:22.222Z,5.82
2022-12-08T01:16:22.313Z,5.79
2022-12-08T01:17:22.219Z,5.68
2022-12-08T01:18:22.207Z,5.67
2022-12-08T01:19:22.208Z,5.56
2022-12-08T01:20:22.205Z,5.46
2022-12-08T01:21:22.195Z,5.45
2022-12-08T01:22:22.217Z,5.43
2022-12-08T01:23:22.188Z,5.40
2022-12-08T01:24:22.179Z,5.40
2022-12-08T01:25:22.176Z,5.49
2022-12-08T01:26:22.167Z,5.39
2022-12-08T01:27:22.168Z,5.48
2022-12-08T01:28:22.160Z,5.39
2022-12-08T01:29:22.156Z,5.48
2022-12-08T01:30:22.152Z,5.42
2022-12-08T01:31:22.256Z,5.43
2022-12-08T01:32:22.144Z,5.42
2022-12-08T01:33:22.132Z,5.35
2022-12-08T01:34:22.127Z,5.40
2022-12-08T01:35:22.127Z,5.43
2022-12-08T01:36:22.121Z,5.43
2022-12-08T01:37:22.115Z,5.45
2022-12-08T01:38:22.129Z,5.42
2022-12-08T01:39:22.102Z,5.45
2022-12-08T01:40:22.095Z,5.48
2022-12-08T01:41:22.094Z,5.57
2022-12-08T01:42:22.084Z,5.72
2022-12-08T01:43:22.082Z,5.82
2022-12-08T01:44:22.077Z,5.89
2022-12-08T01:45:22.068Z,6.00
2022-12-08T01:46:22.182Z,5.79
2022-12-08T01:47:22.060Z,5.75
2022-12-08T01:48:22.124Z,5.86
2022-12-08T01:49:22.048Z,5.71
2022-12-08T01:50:22.046Z,5.89
2022-12-08T01:51:22.037Z,5.76
2022-12-08T01:52:22.049Z,5.85
2022-12-08T01:53:22.032Z,5.81
2022-12-08T01:54:22.050Z,5.96
2022-12-08T01:55:22.016Z,5.78
2022-12-08T01:56:22.016Z,5.94
2022-12-08T01:57:22.010Z,5.96
2022-12-08T01:58:22.009Z,5.94
2022-12-08T01:59:21.998Z,5.99
2022-12-08T02:00:21.998Z,5.91
2022-12-08T02:01:22.094Z,5.86
2022-12-08T02:02:22.075Z,5.96
2022-12-08T02:03:21.979Z,5.99
2022-12-08T02:04:21.983Z,6.11
2022-12-08T02:05:21.965Z,6.04
2022-12-08T02:06:21.966Z,6.15
2022-12-08T02:07:21.957Z,6.08
2022-12-08T02:08:22.115Z,5.93
2022-12-08T02:09:21.946Z,5.85
2022-12-08T02:10:21.968Z,5.75
2022-12-08T02:11:21.948Z,5.56
2022-12-08T02:12:21.935Z,5.49
2022-12-08T02:13:21.927Z,5.57
2022-12-08T02:14:21.925Z,5.43
2022-12-08T02:15:21.913Z,5.45
2022-12-08T02:16:21.994Z,5.40
2022-12-08T02:17:21.905Z,5.36
2022-12-08T02:18:21.904Z,5.24
2022-12-08T02:19:30.836Z,5.43
2022-12-08T02:20:21.922Z,5.28
2022-12-08T02:21:21.881Z,5.39
2022-12-08T02:22:21.887Z,5.46
2022-12-08T02:23:21.877Z,5.39
2022-12-08T02:24:21.875Z,5.40
2022-12-08T02:25:21.862Z,5.36
2022-12-08T02:26:21.896Z,5.43
2022-12-08T02:27:21.859Z,5.60
2022-12-08T02:28:21.855Z,5.46
2022-12-08T02:29:21.842Z,5.48
2022-12-08T02:30:21.843Z,5.58
2022-12-08T02:31:21.930Z,5.48
2022-12-08T02:32:21.842Z,5.39
2022-12-08T02:33:21.826Z,5.36
2022-12-08T02:34:21.824Z,5.35
2022-12-08T02:35:21.813Z,5.45
2022-12-08T02:36:21.809Z,5.31
2022-12-08T02:37:21.803Z,5.28
2022-12-08T02:38:21.806Z,5.35
2022-12-08T02:39:21.793Z,5.38
2022-12-08T02:40:21.802Z,5.31
2022-12-08T02:41:21.781Z,5.27
2022-12-08T02:42:21.804Z,5.38
2022-12-08T02:43:21.776Z,5.38
2022-12-08T02:44:21.772Z,5.35
2022-12-08T02:45:21.765Z,5.33
2022-12-08T02:46:21.821Z,5.30
2022-12-08T02:47:21.752Z,5.28
2022-12-08T02:48:21.755Z,5.17
2022-12-08T02:49:21.747Z,5.21
2022-12-08T02:50:21.738Z,5.43
2022-12-08T02:51:21.735Z,5.45
2022-12-08T02:52:21.750Z,5.38
2022-12-08T02:53:21.729Z,5.53
2022-12-08T02:54:21.725Z,5.54
2022-12-08T02:55:21.712Z,5.51
2022-12-08T02:56:21.711Z,5.57
2022-12-08T02:57:21.701Z,5.48
2022-12-08T02:58:21.723Z,5.63
2022-12-08T02:59:21.689Z,5.56
2022-12-08T03:00:21.689Z,5.60
2022-12-08T03:01:21.743Z,5.60
2022-12-08T03:02:21.760Z,5.43
2022-12-08T03:03:21.672Z,5.49
2022-12-08T03:04:21.668Z,5.48
2022-12-08T03:05:21.660Z,5.48
2022-12-08T03:06:21.658Z,5.45
2022-12-08T03:07:21.655Z,5.53
2022-12-08T03:08:21.740Z,5.60
2022-12-08T03:09:21.646Z,5.58
2022-12-08T03:10:21.639Z,5.49
2022-12-08T03:11:21.628Z,5.58
2022-12-08T03:12:21.629Z,5.48
2022-12-08T03:13:21.618Z,5.46
2022-12-08T03:14:21.646Z,5.43
2022-12-08T03:15:21.609Z,5.43
2022-12-08T03:16:21.688Z,5.36
2022-12-08T03:17:21.600Z,5.43
2022-12-08T03:18:21.596Z,5.60
2022-12-08T03:19:21.588Z,5.22
2022-12-08T03:20:21.585Z,5.33
2022-12-08T03:21:21.577Z,5.27
2022-12-08T03:22:21.576Z,5.30
2022-12-08T03:23:21.570Z,5.12
2022-12-08T03:24:21.563Z,5.07
2022-12-08T03:25:21.585Z,5.12
2022-12-08T03:26:21.553Z,5.24
2022-12-08T03:27:21.548Z,5.18
2022-12-08T03:28:21.543Z,5.25
2022-12-08T03:29:21.533Z,5.27
2022-12-08T03:30:21.554Z,5.27
2022-12-08T03:31:21.623Z,5.39
2022-12-08T03:32:21.527Z,5.43
2022-12-08T03:33:21.514Z,5.48
2022-12-08T03:34:21.513Z,5.31
2022-12-08T03:35:21.504Z,5.49
2022-12-08T03:36:21.505Z,5.45
2022-12-08T03:37:21.493Z,5.45
2022-12-08T03:38:21.497Z,5.45
2022-12-08T03:39:21.480Z,5.45
2022-12-08T03:40:21.499Z,5.36
2022-12-08T03:41:21.475Z,5.43
2022-12-08T03:42:21.468Z,5.43
2022-12-08T03:43:21.462Z,5.38
2022-12-08T03:44:21.462Z,5.30
2022-12-08T03:45:21.451Z,5.39
2022-12-08T03:47:00.946Z,5.24
2022-12-08T03:48:00.920Z,5.33
2022-12-08T03:49:00.917Z,5.30
2022-12-08T03:50:01.057Z,5.36
2022-12-08T03:51:00.904Z,5.33
2022-12-08T03:52:00.897Z,5.30
2022-12-08T03:53:00.892Z,5.22
2022-12-08T03:54:00.881Z,5.28
2022-12-08T03:55:00.888Z,5.30
2022-12-08T03:56:00.878Z,5.28
2022-12-08T03:57:00.872Z,5.25
2022-12-08T03:58:00.861Z,5.27
2022-12-08T03:59:00.863Z,5.40
2022-12-08T04:00:00.966Z,5.45
2022-12-08T04:01:00.848Z,5.38
2022-12-08T04:02:00.931Z,5.30
2022-12-08T04:03:00.920Z,5.42
2022-12-08T04:04:00.841Z,5.48
2022-12-08T04:05:00.826Z,5.45
2022-12-08T04:06:00.825Z,5.30
2022-12-08T04:07:00.820Z,5.30
2022-12-08T04:08:00.862Z,5.33
2022-12-08T04:09:00.807Z,5.24
2022-12-08T04:10:00.797Z,5.24
2022-12-08T04:11:00.826Z,5.18
2022-12-08T04:12:00.780Z,5.30
2022-12-08T04:13:00.785Z,5.30
2022-12-08T04:14:00.777Z,5.48
2022-12-08T04:15:00.786Z,5.38
2022-12-08T04:16:00.812Z,5.33
2022-12-08T04:17:00.760Z,5.48
2022-12-08T04:18:00.753Z,5.53
2022-12-08T04:19:00.769Z,5.48
2022-12-08T04:20:00.978Z,5.28
2022-12-08T04:21:00.741Z,5.36
2022-12-08T04:22:00.729Z,5.40
2022-12-08T04:23:00.732Z,5.45
2022-12-08T04:24:01.414Z,5.51
2022-12-08T04:25:00.720Z,5.48
2022-12-08T04:26:00.714Z,5.51
2022-12-08T04:27:00.705Z,5.49
2022-12-08T04:28:00.695Z,5.43
2022-12-08T04:29:00.702Z,5.48
2022-12-08T04:30:00.685Z,5.38
2022-12-08T04:31:00.787Z,5.35
2022-12-08T04:32:00.674Z,5.28
2022-12-08T04:33:00.674Z,5.31
2022-12-08T04:34:00.668Z,5.27
2022-12-08T04:35:00.684Z,5.27
2022-12-08T04:36:00.654Z,5.31
2022-12-08T04:37:00.657Z,5.31
2022-12-08T04:38:00.646Z,5.25
2022-12-08T04:39:00.643Z,5.30
2022-12-08T04:40:00.633Z,5.28
2022-12-08T04:41:00.638Z,5.31
2022-12-08T04:42:00.622Z,5.25
2022-12-08T04:43:00.619Z,5.27
2022-12-08T04:44:00.615Z,5.30
2022-12-08T04:45:00.609Z,5.24
2022-12-08T04:46:00.602Z,5.18
2022-12-08T04:47:00.643Z,5.25
2022-12-08T04:48:00.588Z,5.25
2022-12-08T04:49:00.590Z,5.30
2022-12-08T04:50:00.625Z,5.43
2022-12-08T04:51:00.600Z,5.49
2022-12-08T04:52:00.565Z,5.45
2022-12-08T04:53:00.566Z,5.43
2022-12-08T04:54:00.552Z,5.30
2022-12-08T04:55:00.555Z,5.31
2022-12-08T04:56:00.546Z,5.33
2022-12-08T04:57:00.544Z,5.17
2022-12-08T04:58:00.532Z,5.24
2022-12-08T04:59:00.533Z,5.28
2022-12-08T05:00:00.522Z,5.33
2022-12-08T05:01:00.637Z,5.39
2022-12-08T05:02:00.662Z,5.33
2022-12-08T05:03:00.710Z,5.28
2022-12-08T05:04:00.500Z,5.30
2022-12-08T05:05:00.504Z,5.24
2022-12-08T05:06:00.485Z,5.31
2022-12-08T05:07:00.504Z,5.40
2022-12-08T05:08:00.568Z,5.39
2022-12-08T05:09:00.478Z,5.40
2022-12-08T05:10:00.471Z,5.51
2022-12-08T05:11:00.465Z,5.48
2022-12-08T05:12:00.461Z,5.54
2022-12-08T05:13:00.454Z,5.48
2022-12-08T05:14:00.443Z,5.60
2022-12-08T05:15:00.441Z,5.58
2022-12-08T05:16:00.495Z,5.60
2022-12-08T05:17:04.860Z,5.49
2022-12-08T05:18:00.423Z,5.57
2022-12-08T05:19:00.420Z,5.38
2022-12-08T05:20:00.422Z,5.33
2022-12-08T05:21:00.411Z,5.49
2022-12-08T05:22:00.400Z,5.43
2022-12-08T05:23:00.423Z,5.56
2022-12-08T05:24:00.391Z,5.60
2022-12-08T05:25:00.389Z,5.67
2022-12-08T05:26:00.378Z,5.72
2022-12-08T05:27:00.380Z,5.78
2022-12-08T05:28:32.304Z,5.79
2022-12-08T05:29:00.370Z,5.79
2022-12-08T05:30:00.360Z,5.86
2022-12-08T05:31:00.353Z,5.86
2022-12-08T05:32:00.526Z,5.78
2022-12-08T05:33:00.343Z,5.85
2022-12-08T05:34:03.106Z,5.71
2022-12-08T05:35:00.331Z,5.71
2022-12-08T05:36:00.325Z,5.71
2022-12-08T05:37:00.324Z,5.75
2022-12-08T05:38:00.313Z,5.83
2022-12-08T05:39:00.336Z,5.89
2022-12-08T05:40:00.304Z,5.72
2022-12-08T05:41:00.302Z,5.81
2022-12-08T05:42:00.294Z,5.85
2022-12-08T05:43:00.290Z,5.86
2022-12-08T05:44:00.281Z,5.85
2022-12-08T05:45:00.280Z,5.91
2022-12-08T05:46:00.376Z,5.85
2022-12-08T05:47:00.273Z,5.91
2022-12-08T05:48:00.263Z,5.97
2022-12-08T05:49:00.259Z,5.96
2022-12-08T05:50:00.249Z,5.94
2022-12-08T05:51:00.249Z,5.89
2022-12-08T05:52:00.237Z,5.89
2022-12-08T05:53:00.237Z,5.86
2022-12-08T05:54:00.226Z,5.90
2022-12-08T05:55:00.251Z,5.91
2022-12-08T05:56:00.217Z,5.76
2022-12-08T05:57:00.219Z,5.79
2022-12-08T05:58:04.646Z,5.97
2022-12-08T05:59:00.204Z,6.00
2022-12-08T06:00:00.197Z,5.99
2022-12-08T06:01:00.197Z,5.94
2022-12-08T06:02:00.367Z,6.00
2022-12-08T06:03:00.393Z,6.00
2022-12-08T06:04:00.176Z,6.04
2022-12-08T06:05:00.174Z,5.99
2022-12-08T06:06:00.166Z,6.00
2022-12-08T06:07:00.161Z,6.00
2022-12-08T06:08:00.236Z,6.00
2022-12-08T06:09:00.152Z,5.93
2022-12-08T06:10:00.174Z,5.82
2022-12-08T06:11:00.165Z,5.82
2022-12-08T06:12:00.137Z,5.91
2022-12-08T06:13:00.134Z,5.91
2022-12-08T06:14:00.123Z,5.91
2022-12-08T06:15:00.126Z,5.91
2022-12-08T06:16:00.114Z,5.93
2022-12-08T06:17:00.263Z,5.85
2022-12-08T06:18:00.115Z,5.89
2022-12-08T06:19:00.112Z,5.94
2022-12-08T06:20:00.126Z,6.04
2022-12-08T06:21:00.091Z,5.97
2022-12-08T06:22:00.085Z,6.12
2022-12-08T06:23:00.101Z,5.97
2022-12-08T06:24:00.094Z,6.00
2022-12-08T06:25:00.074Z,6.08
2022-12-08T06:26:00.073Z,6.06
2022-12-08T06:27:00.089Z,6.04
2022-12-08T06:28:00.047Z,6.04
2022-12-08T06:29:00.048Z,6.03
2022-12-08T06:30:00.040Z,6.14
2022-12-08T06:31:00.036Z,6.12
2022-12-08T06:32:00.138Z,6.12
2022-12-08T06:33:00.028Z,6.08
2022-12-08T06:34:00.021Z,6.01
2022-12-08T06:35:00.026Z,5.97
2022-12-08T06:36:00.016Z,6.00
2022-12-08T06:37:00.014Z,5.86
2022-12-08T06:37:59.998Z,6.01
2022-12-08T06:39:00.000Z,6.03
2022-12-08T06:39:59.993Z,6.01
2022-12-08T06:40:59.987Z,6.09
2022-12-08T06:41:59.981Z,6.09
2022-12-08T06:43:00.002Z,6.17
2022-12-08T06:43:59.967Z,6.12
2022-12-08T06:44:59.969Z,6.09
2022-12-08T06:46:00.009Z,6.08
2022-12-08T06:46:59.955Z,6.17
2022-12-08T06:47:59.950Z,6.14
2022-12-08T06:48:59.945Z,6.09
2022-12-08T06:49:59.937Z,6.17
2022-12-08T06:50:59.940Z,6.30
2022-12-08T06:51:59.940Z,6.25
2022-12-08T06:53:05.249Z,6.22
2022-12-08T06:53:59.915Z,6.33
2022-12-08T06:54:59.917Z,6.34
2022-12-08T06:56:00.173Z,6.27
2022-12-08T06:56:59.912Z,6.31
2022-12-08T06:57:59.901Z,6.33
2022-12-08T06:58:59.913Z,6.14
2022-12-08T06:59:59.884Z,6.15
2022-12-08T07:00:59.955Z,6.22
2022-12-08T07:01:59.922Z,6.19
2022-12-08T07:02:59.965Z,6.19
2022-12-08T07:03:59.869Z,6.27
2022-12-08T07:04:59.865Z,6.28
2022-12-08T07:06:03.852Z,6.27
2022-12-08T07:06:59.852Z,6.18
2022-12-08T07:07:59.929Z,6.19
2022-12-08T07:08:59.846Z,6.11
2022-12-08T07:09:59.833Z,6.06
2022-12-08T07:10:59.834Z,6.09
2022-12-08T07:11:59.822Z,6.14
2022-12-08T07:12:59.822Z,6.08
2022-12-08T07:13:59.814Z,6.14
2022-12-08T07:14:59.830Z,6.14
2022-12-08T07:15:59.803Z,6.06
2022-12-08T07:16:59.877Z,6.11
2022-12-08T07:18:00.611Z,6.09
2022-12-08T07:18:59.792Z,6.17
2022-12-08T07:19:59.781Z,6.06
2022-12-08T07:20:59.783Z,6.18
2022-12-08T07:21:59.778Z,6.22
2022-12-08T07:22:59.769Z,6.28
2022-12-08T07:23:59.761Z,6.27
2022-12-08T07:24:59.762Z,6.19
2022-12-08T07:25:59.750Z,6.09
2022-12-08T07:26:59.744Z,6.18
2022-12-08T07:27:59.742Z,6.12
2022-12-08T07:28:59.743Z,6.19
2022-12-08T07:29:59.733Z,6.27
2022-12-08T07:30:59.816Z,6.15
2022-12-08T07:31:59.724Z,6.12
2022-12-08T07:32:59.717Z,6.11
2022-12-08T07:33:59.708Z,6.12
2022-12-08T07:34:59.711Z,6.18
2022-12-08T07:35:59.701Z,6.17
2022-12-08T07:36:59.702Z,6.15
2022-12-08T07:37:59.689Z,6.11
2022-12-08T07:38:59.693Z,6.19
2022-12-08T07:39:59.687Z,6.12
2022-12-08T07:40:59.684Z,5.97
2022-12-08T07:41:59.669Z,5.90
2022-12-08T07:42:59.668Z,5.96
2022-12-08T07:43:59.657Z,5.99
2022-12-08T07:44:59.659Z,5.97
2022-12-08T07:45:59.710Z,6.06
2022-12-08T07:46:59.671Z,6.04
2022-12-08T07:47:59.638Z,6.15
2022-12-08T07:48:59.642Z,6.18
2022-12-08T07:49:59.627Z,6.08
2022-12-08T07:50:59.628Z,6.11
2022-12-08T07:51:59.619Z,6.17
2022-12-08T07:52:59.617Z,6.21
2022-12-08T07:53:59.609Z,6.15
2022-12-08T07:54:59.609Z,6.19
2022-12-08T07:55:59.602Z,6.09
2022-12-08T07:56:59.596Z,6.12
2022-12-08T07:57:59.587Z,6.17
2022-12-08T07:58:59.587Z,6.21
2022-12-08T07:59:59.583Z,6.21
2022-12-08T08:00:59.721Z,6.33
2022-12-08T08:02:21.366Z,6.33
2022-12-08T08:02:59.682Z,6.37
2022-12-08T08:03:59.560Z,6.38
2022-12-08T08:04:59.634Z,6.31
2022-12-08T08:05:59.549Z,6.40
2022-12-08T08:06:59.542Z,6.40
2022-12-08T08:07:59.638Z,6.48
2022-12-08T08:08:59.533Z,6.46
2022-12-08T08:09:59.529Z,6.41
2022-12-08T08:10:59.526Z,6.34
2022-12-08T08:12:29.140Z,6.55
2022-12-08T08:12:59.514Z,6.56
2022-12-08T08:13:59.539Z,6.56
2022-12-08T08:14:59.500Z,6.44
2022-12-08T08:15:59.660Z,6.56
2022-12-08T08:16:59.696Z,6.40
2022-12-08T08:17:59.496Z,6.43
2022-12-08T08:18:59.512Z,6.48
2022-12-08T08:19:59.481Z,6.49
2022-12-08T08:21:06.717Z,6.58
2022-12-08T08:21:59.468Z,6.44
2022-12-08T08:22:59.458Z,6.37
2022-12-08T08:23:59.459Z,6.44
2022-12-08T08:24:59.456Z,6.51
2022-12-08T08:25:59.448Z,6.58
2022-12-08T08:26:59.440Z,6.58
2022-12-08T08:27:59.436Z,6.52
2022-12-08T08:28:59.430Z,6.43
2022-12-08T08:29:59.431Z,6.51
2022-12-08T08:30:59.467Z,6.41
2022-12-08T08:31:59.420Z,6.41
2022-12-08T08:32:59.414Z,6.41
2022-12-08T08:33:59.409Z,6.30
2022-12-08T08:34:59.421Z,6.55
2022-12-08T08:35:59.401Z,6.41
2022-12-08T08:36:59.473Z,6.43
2022-12-08T08:37:59.387Z,6.48
2022-12-08T08:38:59.384Z,6.44
2022-12-08T08:39:59.375Z,6.52
2022-12-08T08:40:59.371Z,6.56
2022-12-08T08:41:59.385Z,6.61
2022-12-08T08:42:59.362Z,6.51
2022-12-08T08:43:59.362Z,6.64
2022-12-08T08:44:59.349Z,6.66
2022-12-08T08:45:59.398Z,6.74
2022-12-08T08:46:59.342Z,6.88
2022-12-08T08:47:59.339Z,6.85
2022-12-08T08:48:59.330Z,6.80
2022-12-08T08:49:59.331Z,6.67
2022-12-08T08:50:59.345Z,6.88
2022-12-08T08:51:59.324Z,6.80
2022-12-08T08:52:59.309Z,6.69
2022-12-08T08:53:59.316Z,6.66
2022-12-08T08:54:59.303Z,6.64
2022-12-08T08:56:00.801Z,6.85
2022-12-08T08:56:59.285Z,6.79
2022-12-08T08:57:59.288Z,6.77
2022-12-08T08:58:59.282Z,6.87
2022-12-08T08:59:59.332Z,6.92
2022-12-08T09:00:59.270Z,6.85
2022-12-08T09:01:59.349Z,6.76
2022-12-08T09:02:59.263Z,6.70
2022-12-08T09:03:59.321Z,6.71
2022-12-08T09:04:59.399Z,6.80
2022-12-08T09:05:59.409Z,6.88
2022-12-08T09:06:59.275Z,6.81
2022-12-08T09:07:59.302Z,6.91
2022-12-08T09:08:59.235Z,6.88
2022-12-08T09:10:01.808Z,6.92
2022-12-08T09:10:59.220Z,6.85
2022-12-08T09:11:59.231Z,6.88
2022-12-08T09:12:59.210Z,6.97
2022-12-08T09:13:59.210Z,6.80
2022-12-08T09:14:59.205Z,6.67
2022-12-08T09:15:59.318Z,6.81
2022-12-08T09:16:59.197Z,6.76
2022-12-08T09:17:59.198Z,6.91
2022-12-08T09:18:59.185Z,6.87
2022-12-08T09:19:59.193Z,6.98
2022-12-08T09:20:59.177Z,7.16
2022-12-08T09:21:59.177Z,7.32
2022-12-08T09:22:59.188Z,7.45
2022-12-08T09:23:59.163Z,7.40
2022-12-08T09:24:59.157Z,7.39
2022-12-08T09:25:59.152Z,7.32
2022-12-08T09:26:59.147Z,7.34
2022-12-08T09:27:59.147Z,7.49
2022-12-08T09:28:59.136Z,7.42
2022-12-08T09:29:59.138Z,7.50
2022-12-08T09:30:59.227Z,7.40
2022-12-08T09:31:59.203Z,7.30
2022-12-08T09:32:59.119Z,7.21
2022-12-08T09:33:59.115Z,7.35
2022-12-08T09:34:59.106Z,7.35
2022-12-08T09:35:59.111Z,7.34
2022-12-08T09:36:59.105Z,7.46
2022-12-08T09:37:59.110Z,7.74
2022-12-08T09:38:59.109Z,7.90
2022-12-08T09:39:59.093Z,8.10
2022-12-08T09:40:59.081Z,8.11
2022-12-08T09:41:59.089Z,7.98
2022-12-08T09:42:59.072Z,7.75
2022-12-08T09:43:59.072Z,7.72
2022-12-08T09:44:59.058Z,7.71
2022-12-08T09:45:59.056Z,7.58
2022-12-08T09:46:59.163Z,7.55
2022-12-08T09:47:59.057Z,7.60
2022-12-08T09:48:59.045Z,7.57
2022-12-08T09:49:59.041Z,7.71
2022-12-08T09:50:59.038Z,7.60
2022-12-08T09:51:59.034Z,7.53
2022-12-08T09:52:59.029Z,7.46
2022-12-08T09:53:59.030Z,7.48
2022-12-08T09:54:59.041Z,7.35
2022-12-08T09:55:59.019Z,7.40
2022-12-08T09:56:59.010Z,7.48
2022-12-08T09:57:59.012Z,7.46
2022-12-08T09:58:58.999Z,7.45
2022-12-08T09:59:59.005Z,7.45
2022-12-08T10:00:58.995Z,7.39
2022-12-08T10:01:59.124Z,7.45
2022-12-08T10:02:58.985Z,7.43
2022-12-08T10:03:58.982Z,7.48
2022-12-08T10:04:59.091Z,7.48
2022-12-08T10:05:58.973Z,7.55
2022-12-08T10:06:58.968Z,7.71
2022-12-08T10:07:59.053Z,7.75
2022-12-08T10:08:58.958Z,7.63
2022-12-08T10:09:58.955Z,7.57
2022-12-08T10:10:58.977Z,7.49
2022-12-08T10:11:58.954Z,7.58
2022-12-08T10:12:58.940Z,7.46
2022-12-08T10:13:58.939Z,7.46
2022-12-08T10:14:58.934Z,7.50
2022-12-08T10:15:59.025Z,7.52
2022-12-08T10:16:58.993Z,7.61
2022-12-08T10:17:58.920Z,7.53
2022-12-08T10:18:58.913Z,7.72
2022-12-08T10:19:58.915Z,7.67
2022-12-08T10:20:58.907Z,7.75
2022-12-08T10:21:58.908Z,7.57
2022-12-08T10:22:58.903Z,7.53
2022-12-08T10:23:58.902Z,7.58
2022-12-08T10:24:58.882Z,7.86
2022-12-08T10:25:58.891Z,7.87
2022-12-08T10:26:58.913Z,7.79
2022-12-08T10:27:58.882Z,7.75
2022-12-08T10:28:58.872Z,7.80
2022-12-08T10:29:58.875Z,7.74
2022-12-08T10:30:58.956Z,7.90
2022-12-08T10:31:59.004Z,7.97
2022-12-08T10:32:58.859Z,8.05
2022-12-08T10:33:58.853Z,8.16
2022-12-08T10:34:58.849Z,8.04
2022-12-08T10:35:58.851Z,8.04
2022-12-08T10:36:58.835Z,8.08
2022-12-08T10:37:58.838Z,8.02
2022-12-08T10:38:58.828Z,8.12
2022-12-08T10:39:58.826Z,8.10
2022-12-08T10:40:58.818Z,8.02
2022-12-08T10:41:58.819Z,7.92
2022-12-08T10:42:58.835Z,8.01
2022-12-08T10:43:58.815Z,8.00
2022-12-08T10:44:58.803Z,8.00
2022-12-08T10:45:58.803Z,7.97
2022-12-08T10:46:58.882Z,7.87
2022-12-08T10:47:58.801Z,7.85
2022-12-08T10:48:58.787Z,7.92
2022-12-08T10:49:58.788Z,7.87
2022-12-08T10:50:58.780Z,7.79
2022-12-08T10:51:58.780Z,7.75
2022-12-08T10:52:58.775Z,7.90
2022-12-08T10:53:58.773Z,7.74
2022-12-08T10:54:58.760Z,7.53
2022-12-08T10:55:58.762Z,7.55
2022-12-08T10:56:58.761Z,7.57
2022-12-08T10:57:58.753Z,7.64
2022-12-08T10:58:58.767Z,7.60
2022-12-08T10:59:58.743Z,7.71
2022-12-08T11:00:58.748Z,7.68
2022-12-08T11:01:58.945Z,7.58
2022-12-08T11:02:58.850Z,7.57
2022-12-08T11:03:58.727Z,7.57
2022-12-08T11:04:58.716Z,7.69
2022-12-08T11:05:58.715Z,7.82
2022-12-08T11:06:58.710Z,7.93
2022-12-08T11:07:58.761Z,7.72
2022-12-08T11:08:58.703Z,7.52
2022-12-08T11:09:58.697Z,7.60
2022-12-08T11:10:58.693Z,7.53
2022-12-08T11:11:58.688Z,7.49
2022-12-08T11:12:58.684Z,7.46
2022-12-08T11:13:58.682Z,7.49
2022-12-08T11:14:58.704Z,7.34
2022-12-08T11:15:58.738Z,7.30
2022-12-08T11:16:58.756Z,7.30
2022-12-08T11:17:58.665Z,7.20
2022-12-08T11:18:58.660Z,7.09
2022-12-08T11:19:58.659Z,7.21
2022-12-08T11:20:58.648Z,7.20
2022-12-08T11:21:58.642Z,7.23
2022-12-08T11:22:58.636Z,7.28
2022-12-08T11:23:58.641Z,7.16
2022-12-08T11:24:58.634Z,7.17
2022-12-08T11:25:58.626Z,7.23
2022-12-08T11:26:58.622Z,7.35
2022-12-08T11:27:58.624Z,7.37
2022-12-08T11:28:58.610Z,7.34
2022-12-08T11:29:58.609Z,7.23
2022-12-08T11:30:58.626Z,7.23
2022-12-08T11:31:58.673Z,7.20
2022-12-08T11:32:58.592Z,7.20
2022-12-08T11:33:58.587Z,7.15
2022-12-08T11:34:58.581Z,7.32
2022-12-08T11:35:58.578Z,7.27
2022-12-08T11:36:58.577Z,7.23
2022-12-08T11:38:13.430Z,7.37
2022-12-08T11:38:58.566Z,7.32
2022-12-08T11:39:58.568Z,7.34
2022-12-08T11:40:58.559Z,7.39
2022-12-08T11:41:58.553Z,7.39
2022-12-08T11:42:58.544Z,7.43
2022-12-08T11:43:58.544Z,7.45
2022-12-08T11:44:58.538Z,7.53
2022-12-08T11:45:58.649Z,7.53
2022-12-08T11:46:58.554Z,7.53
2022-12-08T11:47:58.526Z,7.53
2022-12-08T11:49:04.183Z,7.52
2022-12-08T11:49:58.513Z,7.53
2022-12-08T11:50:58.507Z,7.64
2022-12-08T11:51:58.507Z,7.48
2022-12-08T11:52:58.508Z,7.61
2022-12-08T11:53:58.495Z,7.71
2022-12-08T11:54:58.487Z,7.67
2022-12-08T11:55:58.493Z,7.74
2022-12-08T11:56:58.483Z,7.74
2022-12-08T11:57:58.533Z,7.90
2022-12-08T11:58:58.470Z,7.82
2022-12-08T11:59:58.467Z,7.75
2022-12-08T12:00:58.466Z,7.68
2022-12-08T12:01:58.526Z,7.75
2022-12-08T12:02:58.565Z,7.50
2022-12-08T12:03:58.458Z,7.46
2022-12-08T12:04:58.445Z,7.39
2022-12-08T12:06:13.607Z,7.48
2022-12-08T12:06:58.431Z,7.52
2022-12-08T12:07:58.456Z,7.43
2022-12-08T12:08:58.426Z,7.42
2022-12-08T12:09:58.427Z,7.53
2022-12-08T12:10:58.413Z,7.50
2022-12-08T12:11:58.418Z,7.61
2022-12-08T12:12:58.408Z,7.58
2022-12-08T12:13:58.403Z,7.63
2022-12-08T12:14:58.401Z,7.58
2022-12-08T12:15:58.393Z,7.58
2022-12-08T12:16:58.462Z,7.55
2022-12-08T12:17:58.384Z,7.60
2022-12-08T12:18:58.403Z,7.57
2022-12-08T12:19:58.376Z,7.64
2022-12-08T12:20:58.374Z,7.52
2022-12-08T12:21:58.363Z,7.60
2022-12-08T12:22:58.363Z,7.55
2022-12-08T12:23:58.365Z,7.71
2022-12-08T12:24:58.351Z,7.74
2022-12-08T12:25:58.347Z,7.69
2022-12-08T12:26:58.340Z,7.60
2022-12-08T12:27:58.337Z,7.63
2022-12-08T12:28:58.334Z,7.71
2022-12-08T12:29:58.329Z,7.58
2022-12-08T12:30:58.356Z,7.55
2022-12-08T12:31:58.322Z,7.63
2022-12-08T12:32:58.324Z,7.63
2022-12-08T12:33:58.312Z,7.83
2022-12-08T12:34:58.324Z,7.89
2022-12-08T12:35:58.305Z,7.75
2022-12-08T12:36:58.297Z,7.74
2022-12-08T12:37:58.287Z,7.74
2022-12-08T12:38:58.291Z,7.72
2022-12-08T12:39:58.284Z,7.80
2022-12-08T12:40:58.277Z,7.72
2022-12-08T12:41:58.270Z,7.68
2022-12-08T12:42:58.270Z,7.61
2022-12-08T12:43:58.259Z,7.42
2022-12-08T12:44:58.259Z,7.32
2022-12-08T12:45:58.353Z,7.43
2022-12-08T12:46:58.253Z,7.35
2022-12-08T12:47:58.241Z,7.35
2022-12-08T12:48:58.276Z,7.42
2022-12-08T12:49:58.232Z,7.37
2022-12-08T12:50:58.262Z,7.39
2022-12-08T12:51:58.228Z,7.42
2022-12-08T12:52:58.224Z,7.39
2022-12-08T12:53:58.212Z,7.49
2022-12-08T12:54:58.220Z,7.48
2022-12-08T12:55:58.209Z,7.55
2022-12-08T12:56:58.207Z,7.61
2022-12-08T12:57:58.196Z,7.48
2022-12-08T12:58:58.194Z,7.46
2022-12-08T12:59:58.190Z,7.43
2022-12-08T13:00:58.212Z,7.45
2022-12-08T13:01:58.178Z,7.46
2022-12-08T13:02:58.270Z,7.40
2022-12-08T13:03:58.172Z,7.34
2022-12-08T13:04:58.180Z,7.39
2022-12-08T13:05:58.158Z,7.39
2022-12-08T13:06:58.186Z,7.42
2022-12-08T13:07:58.195Z,7.39
2022-12-08T13:08:58.150Z,7.42
2022-12-08T13:09:58.138Z,7.39
2022-12-08T13:10:58.152Z,7.42
2022-12-08T13:11:58.148Z,7.39
2022-12-08T13:12:58.129Z,7.39
2022-12-08T13:13:58.141Z,7.40
2022-12-08T13:14:58.123Z,7.48
2022-12-08T13:15:58.112Z,7.45
2022-12-08T13:16:58.161Z,7.58
2022-12-08T13:17:58.103Z,7.68
2022-12-08T13:18:58.102Z,7.72